sensor_id;sensor_type;location;lat;lon;timestamp;pressure;altitude;pressure_sealevel;temperature;humidity
22241;BME280;11289;52.524;13.694;2024-01-15T00:00:44;98726.09;;;1.12;93.81
22241;BME280;11289;52.524;13.694;2024-01-15T00:03:10;98722.38;;;1.08;93.68
22241;BME280;11289;52.524;13.694;2024-01-15T00:05:36;98708.22;;;1.06;93.65
22241;BME280;11289;52.524;13.694;2024-01-15T00:08:02;98708.22;;;1.06;93.81
22241;BME280;11289;52.524;13.694;2024-01-15T00:10:28;98703.72;;;1.10;94.25
22241;BME280;11289;52.524;13.694;2024-01-15T00:12:54;98695.66;;;1.05;94.11
22241;BME280;11289;52.524;13.694;2024-01-15T00:15:22;98678.94;;;1.07;94.33
22241;BME280;11289;52.524;13.694;2024-01-15T00:17:48;98683.91;;;1.04;94.26
22241;BME280;11289;52.524;13.694;2024-01-15T00:20:14;98672.50;;;1.02;94.26
22241;BME280;11289;52.524;13.694;2024-01-15T00:22:40;98669.59;;;0.99;94.44
22241;BME280;11289;52.524;13.694;2024-01-15T00:25:05;98667.66;;;0.99;94.47
22241;BME280;11289;52.524;13.694;2024-01-15T00:27:32;98660.25;;;1.00;94.32
22241;BME280;11289;52.524;13.694;2024-01-15T00:29:58;98669.88;;;0.97;94.78
22241;BME280;11289;52.524;13.694;2024-01-15T00:32:24;98660.41;;;0.95;94.94
22241;BME280;11289;52.524;13.694;2024-01-15T00:34:50;98662.31;;;0.94;94.81
22241;BME280;11289;52.524;13.694;2024-01-15T00:37:16;98646.75;;;0.95;94.80
22241;BME280;11289;52.524;13.694;2024-01-15T00:39:42;98634.03;;;0.90;95.30
22241;BME280;11289;52.524;13.694;2024-01-15T00:42:08;98637.06;;;0.89;95.48
22241;BME280;11289;52.524;13.694;2024-01-15T00:44:34;98634.03;;;0.90;95.50
22241;BME280;11289;52.524;13.694;2024-01-15T00:47:00;98630.78;;;0.88;95.57
22241;BME280;11289;52.524;13.694;2024-01-15T00:49:27;98620.50;;;0.85;95.56
22241;BME280;11289;52.524;13.694;2024-01-15T00:51:53;98642.22;;;0.90;95.63
22241;BME280;11289;52.524;13.694;2024-01-15T00:54:19;98619.69;;;0.84;95.79
22241;BME280;11289;52.524;13.694;2024-01-15T00:56:45;98603.94;;;0.81;95.77
22241;BME280;11289;52.524;13.694;2024-01-15T00:59:11;98599.41;;;0.77;95.56
22241;BME280;11289;52.524;13.694;2024-01-15T01:01:41;98606.97;;;0.80;95.73
22241;BME280;11289;52.524;13.694;2024-01-15T01:04:12;98613.59;;;0.88;95.54
22241;BME280;11289;52.524;13.694;2024-01-15T01:06:38;98606.53;;;0.86;95.72
22241;BME280;11289;52.524;13.694;2024-01-15T01:09:04;98604.09;;;0.85;95.56
22241;BME280;11289;52.524;13.694;2024-01-15T01:11:30;98606.84;;;0.85;95.31
22241;BME280;11289;52.524;13.694;2024-01-15T01:13:56;98601.69;;;0.83;95.38
22241;BME280;11289;52.524;13.694;2024-01-15T01:16:22;98603.94;;;0.81;95.40
22241;BME280;11289;52.524;13.694;2024-01-15T01:18:48;98596.66;;;0.77;95.55
22241;BME280;11289;52.524;13.694;2024-01-15T01:21:14;98589.41;;;0.72;95.78
22241;BME280;11289;52.524;13.694;2024-01-15T01:23:40;98607.28;;;0.78;96.08
22241;BME280;11289;52.524;13.694;2024-01-15T01:26:06;98591.00;;;0.64;96.19
22241;BME280;11289;52.524;13.694;2024-01-15T01:28:32;98592.47;;;0.71;95.97
22241;BME280;11289;52.524;13.694;2024-01-15T01:30:59;98594.22;;;0.66;96.29
22241;BME280;11289;52.524;13.694;2024-01-15T01:33:25;98595.03;;;0.67;96.53
22241;BME280;11289;52.524;13.694;2024-01-15T01:35:51;98596.78;;;0.63;96.91
22241;BME280;11289;52.524;13.694;2024-01-15T01:38:17;98606.09;;;0.62;96.74
22241;BME280;11289;52.524;13.694;2024-01-15T01:40:43;98596.91;;;0.58;97.18
22241;BME280;11289;52.524;13.694;2024-01-15T01:43:09;98609.94;;;0.61;97.44
22241;BME280;11289;52.524;13.694;2024-01-15T01:45:36;98601.25;;;0.59;97.58
22241;BME280;11289;52.524;13.694;2024-01-15T01:48:02;98614.13;;;0.58;97.83
22241;BME280;11289;52.524;13.694;2024-01-15T01:50:29;98600.75;;;0.57;97.86
22241;BME280;11289;52.524;13.694;2024-01-15T01:52:57;98591.44;;;0.58;97.78
22241;BME280;11289;52.524;13.694;2024-01-15T01:55:24;98594.16;;;0.58;98.26
22241;BME280;11289;52.524;13.694;2024-01-15T01:57:51;98594.00;;;0.54;98.38
22241;BME280;11289;52.524;13.694;2024-01-15T02:00:17;98588.53;;;0.54;98.37
22241;BME280;11289;52.524;13.694;2024-01-15T02:02:43;98581.59;;;0.48;98.22
22241;BME280;11289;52.524;13.694;2024-01-15T02:05:09;98585.31;;;0.52;98.59
22241;BME280;11289;52.524;13.694;2024-01-15T02:07:37;98601.88;;;0.56;98.78
22241;BME280;11289;52.524;13.694;2024-01-15T02:10:03;98589.97;;;0.51;98.88
22241;BME280;11289;52.524;13.694;2024-01-15T02:12:29;98609.56;;;0.54;98.89
22241;BME280;11289;52.524;13.694;2024-01-15T02:14:55;98610.72;;;0.52;98.57
22241;BME280;11289;52.524;13.694;2024-01-15T02:17:21;98588.03;;;0.52;98.47
22241;BME280;11289;52.524;13.694;2024-01-15T02:19:47;98564.56;;;0.42;98.55
22241;BME280;11289;52.524;13.694;2024-01-15T02:22:13;98568.56;;;0.45;98.03
22241;BME280;11289;52.524;13.694;2024-01-15T02:24:39;98575.84;;;0.49;98.41
22241;BME280;11289;52.524;13.694;2024-01-15T02:27:05;98574.22;;;0.48;98.25
22241;BME280;11289;52.524;13.694;2024-01-15T02:29:31;98581.91;;;0.46;98.03
22241;BME280;11289;52.524;13.694;2024-01-15T02:31:57;98564.88;;;0.41;98.13
22241;BME280;11289;52.524;13.694;2024-01-15T02:34:23;98575.31;;;0.47;98.02
22241;BME280;11289;52.524;13.694;2024-01-15T02:36:49;98577.06;;;0.43;98.08
22241;BME280;11289;52.524;13.694;2024-01-15T02:39:15;98584.78;;;0.41;96.61
22241;BME280;11289;52.524;13.694;2024-01-15T02:41:41;98585.75;;;0.45;97.37
22241;BME280;11289;52.524;13.694;2024-01-15T02:44:07;98579.78;;;0.43;96.84
22241;BME280;11289;52.524;13.694;2024-01-15T02:46:33;98588.19;;;0.47;96.69
22241;BME280;11289;52.524;13.694;2024-01-15T02:48:58;98570.97;;;0.46;96.21
22241;BME280;11289;52.524;13.694;2024-01-15T02:51:24;98575.47;;;0.42;96.37
22241;BME280;11289;52.524;13.694;2024-01-15T02:53:50;98557.78;;;0.40;96.29
22241;BME280;11289;52.524;13.694;2024-01-15T02:56:16;98553.94;;;0.41;96.13
22241;BME280;11289;52.524;13.694;2024-01-15T02:58:42;98558.09;;;0.38;95.52
22241;BME280;11289;52.524;13.694;2024-01-15T03:01:08;98561.28;;;0.31;95.68
22241;BME280;11289;52.524;13.694;2024-01-15T03:03:34;98565.47;;;0.38;95.05
22241;BME280;11289;52.524;13.694;2024-01-15T03:06:01;98574.16;;;0.40;95.50
22241;BME280;11289;52.524;13.694;2024-01-15T03:08:28;98578.31;;;0.37;95.87
22241;BME280;11289;52.524;13.694;2024-01-15T03:10:55;98585.09;;;0.40;95.58
22241;BME280;11289;52.524;13.694;2024-01-15T03:13:21;98563.56;;;0.38;95.25
22241;BME280;11289;52.524;13.694;2024-01-15T03:15:46;98551.22;;;0.41;95.46
22241;BME280;11289;52.524;13.694;2024-01-15T03:18:12;98544.94;;;0.40;95.21
22241;BME280;11289;52.524;13.694;2024-01-15T03:20:39;98533.34;;;0.34;94.93
22241;BME280;11289;52.524;13.694;2024-01-15T03:23:05;98536.25;;;0.38;94.79
22241;BME280;11289;52.524;13.694;2024-01-15T03:25:31;98529.31;;;0.32;95.12
22241;BME280;11289;52.524;13.694;2024-01-15T03:27:56;98539.16;;;0.42;94.52
22241;BME280;11289;52.524;13.694;2024-01-15T03:30:22;98542.19;;;0.40;94.54
22241;BME280;11289;52.524;13.694;2024-01-15T03:32:48;98531.78;;;0.42;94.48
22241;BME280;11289;52.524;13.694;2024-01-15T03:35:15;98517.28;;;0.33;94.54
22241;BME280;11289;52.524;13.694;2024-01-15T03:37:41;98541.09;;;0.41;93.61
22241;BME280;11289;52.524;13.694;2024-01-15T03:40:08;98542.09;;;0.45;93.90
22241;BME280;11289;52.524;13.694;2024-01-15T03:42:34;98532.09;;;0.41;93.01
22241;BME280;11289;52.524;13.694;2024-01-15T03:45:00;98518.25;;;0.37;93.48
22241;BME280;11289;52.524;13.694;2024-01-15T03:47:26;98523.91;;;0.41;93.77
22241;BME280;11289;52.524;13.694;2024-01-15T03:49:52;98525.50;;;0.42;93.66
22241;BME280;11289;52.524;13.694;2024-01-15T03:52:18;98526.81;;;0.44;93.04
22241;BME280;11289;52.524;13.694;2024-01-15T03:54:44;98513.78;;;0.41;93.44
22241;BME280;11289;52.524;13.694;2024-01-15T03:57:10;98506.22;;;0.38;93.57
22241;BME280;11289;52.524;13.694;2024-01-15T03:59:36;98508.31;;;0.41;93.32
22241;BME280;11289;52.524;13.694;2024-01-15T04:02:02;98495.78;;;0.40;93.02
22241;BME280;11289;52.524;13.694;2024-01-15T04:04:27;98503.66;;;0.42;93.15
22241;BME280;11289;52.524;13.694;2024-01-15T04:06:54;98497.72;;;0.40;93.17
22241;BME280;11289;52.524;13.694;2024-01-15T04:09:20;98492.44;;;0.43;92.48
22241;BME280;11289;52.524;13.694;2024-01-15T04:11:46;98486.97;;;0.43;92.56
22241;BME280;11289;52.524;13.694;2024-01-15T04:14:12;98495.78;;;0.40;92.53
22241;BME280;11289;52.524;13.694;2024-01-15T04:16:39;98472.16;;;0.36;92.61
22241;BME280;11289;52.524;13.694;2024-01-15T04:19:05;98479.09;;;0.42;92.54
22241;BME280;11289;52.524;13.694;2024-01-15T04:21:31;98468.50;;;0.40;91.94
22241;BME280;11289;52.524;13.694;2024-01-15T04:23:57;98478.31;;;0.41;92.20
22241;BME280;11289;52.524;13.694;2024-01-15T04:26:23;98480.06;;;0.46;92.44
22241;BME280;11289;52.524;13.694;2024-01-15T04:28:49;98478.31;;;0.41;91.45
22241;BME280;11289;52.524;13.694;2024-01-15T04:31:23;98476.72;;;0.49;92.07
22241;BME280;11289;52.524;13.694;2024-01-15T04:33:49;98457.13;;;0.47;91.74
22241;BME280;11289;52.524;13.694;2024-01-15T04:36:15;98466.75;;;0.44;91.56
22241;BME280;11289;52.524;13.694;2024-01-15T04:38:41;98462.59;;;0.47;91.80
22241;BME280;11289;52.524;13.694;2024-01-15T04:41:11;98473.03;;;0.54;91.35
22241;BME280;11289;52.524;13.694;2024-01-15T04:43:37;98464.03;;;0.53;90.90
22241;BME280;11289;52.524;13.694;2024-01-15T04:46:05;98467.09;;;0.51;90.78
22241;BME280;11289;52.524;13.694;2024-01-15T04:48:31;98467.75;;;0.57;90.64
22241;BME280;11289;52.524;13.694;2024-01-15T04:50:57;98448.63;;;0.48;90.15
22241;BME280;11289;52.524;13.694;2024-01-15T04:53:23;98463.09;;;0.58;90.63
22241;BME280;11289;52.524;13.694;2024-01-15T04:55:49;98453.00;;;0.58;90.40
22241;BME280;11289;52.524;13.694;2024-01-15T04:58:15;98457.63;;;0.58;90.23
22241;BME280;11289;52.524;13.694;2024-01-15T05:00:41;98464.88;;;0.62;89.99
22241;BME280;11289;52.524;13.694;2024-01-15T05:03:07;98457.81;;;0.61;89.90
22241;BME280;11289;52.524;13.694;2024-01-15T05:05:33;98454.75;;;0.63;89.82
22241;BME280;11289;52.524;13.694;2024-01-15T05:07:59;98461.03;;;0.63;89.54
22241;BME280;11289;52.524;13.694;2024-01-15T05:10:25;98461.66;;;0.60;89.44
22241;BME280;11289;52.524;13.694;2024-01-15T05:12:51;98456.34;;;0.64;89.42
22241;BME280;11289;52.524;13.694;2024-01-15T05:15:17;98455.88;;;0.62;89.01
22241;BME280;11289;52.524;13.694;2024-01-15T05:17:42;98439.16;;;0.63;88.98
22241;BME280;11289;52.524;13.694;2024-01-15T05:20:09;98456.84;;;0.66;88.66
22241;BME280;11289;52.524;13.694;2024-01-15T05:22:35;98447.03;;;0.65;88.56
22241;BME280;11289;52.524;13.694;2024-01-15T05:25:01;98448.34;;;0.67;88.55
22241;BME280;11289;52.524;13.694;2024-01-15T05:27:27;98433.72;;;0.63;88.25
22241;BME280;11289;52.524;13.694;2024-01-15T05:29:53;98439.69;;;0.65;88.40
22241;BME280;11289;52.524;13.694;2024-01-15T05:32:18;98450.44;;;0.71;88.06
22241;BME280;11289;52.524;13.694;2024-01-15T05:34:44;98437.09;;;0.69;87.93
22241;BME280;11289;52.524;13.694;2024-01-15T05:37:10;98453.47;;;0.69;87.81
22241;BME280;11289;52.524;13.694;2024-01-15T05:39:36;98435.16;;;0.69;88.61
22241;BME280;11289;52.524;13.694;2024-01-15T05:42:02;98439.50;;;0.71;89.36
22241;BME280;11289;52.524;13.694;2024-01-15T05:44:28;98432.91;;;0.63;89.71
22241;BME280;11289;52.524;13.694;2024-01-15T05:46:54;98427.28;;;0.59;89.77
22241;BME280;11289;52.524;13.694;2024-01-15T05:49:20;98434.81;;;0.62;89.73
22241;BME280;11289;52.524;13.694;2024-01-15T05:51:46;98418.28;;;0.59;89.94
22241;BME280;11289;52.524;13.694;2024-01-15T05:54:12;98440.59;;;0.61;89.76
22241;BME280;11289;52.524;13.694;2024-01-15T05:56:38;98430.00;;;0.59;89.82
22241;BME280;11289;52.524;13.694;2024-01-15T05:59:04;98427.59;;;0.58;89.33
22241;BME280;11289;52.524;13.694;2024-01-15T06:01:30;98425.38;;;0.60;89.27
22241;BME280;11289;52.524;13.694;2024-01-15T06:03:56;98433.06;;;0.66;88.98
22241;BME280;11289;52.524;13.694;2024-01-15T06:06:22;98427.28;;;0.68;88.99
22241;BME280;11289;52.524;13.694;2024-01-15T06:08:48;98426.16;;;0.69;89.55
22241;BME280;11289;52.524;13.694;2024-01-15T06:11:14;98438.72;;;0.70;89.74
22241;BME280;11289;52.524;13.694;2024-01-15T06:13:40;98434.69;;;0.67;89.32
22241;BME280;11289;52.524;13.694;2024-01-15T06:16:15;98440.94;;;0.68;89.56
22241;BME280;11289;52.524;13.694;2024-01-15T06:18:46;98436.94;;;0.65;89.93
22241;BME280;11289;52.524;13.694;2024-01-15T06:21:11;98437.88;;;0.69;90.61
22241;BME280;11289;52.524;13.694;2024-01-15T06:23:40;98437.56;;;0.71;90.47
22241;BME280;11289;52.524;13.694;2024-01-15T06:26:06;98437.41;;;0.67;90.53
22241;BME280;11289;52.524;13.694;2024-01-15T06:28:32;98427.59;;;0.66;90.58
22241;BME280;11289;52.524;13.694;2024-01-15T06:30:58;98413.47;;;0.64;90.55
22241;BME280;11289;52.524;13.694;2024-01-15T06:33:24;98428.75;;;0.65;89.44
22241;BME280;11289;52.524;13.694;2024-01-15T06:35:50;98438.72;;;0.70;89.10
22241;BME280;11289;52.524;13.694;2024-01-15T06:38:16;98420.22;;;0.58;89.13
22241;BME280;11289;52.524;13.694;2024-01-15T06:40:42;98433.06;;;0.66;88.86
22241;BME280;11289;52.524;13.694;2024-01-15T06:43:13;98435.34;;;0.73;88.65
22241;BME280;11289;52.524;13.694;2024-01-15T06:45:39;98431.50;;;0.74;88.78
22241;BME280;11289;52.524;13.694;2024-01-15T06:48:05;98426.03;;;0.74;88.17
22241;BME280;11289;52.524;13.694;2024-01-15T06:50:31;98433.59;;;0.77;88.19
22241;BME280;11289;52.524;13.694;2024-01-15T06:52:57;98445.50;;;0.81;88.23
22241;BME280;11289;52.524;13.694;2024-01-15T06:55:23;98430.53;;;0.79;88.52
22241;BME280;11289;52.524;13.694;2024-01-15T06:57:49;98442.75;;;0.81;88.72
22241;BME280;11289;52.524;13.694;2024-01-15T07:00:15;98451.09;;;0.85;89.07
22241;BME280;11289;52.524;13.694;2024-01-15T07:02:41;98431.50;;;0.83;89.21
22241;BME280;11289;52.524;13.694;2024-01-15T07:05:07;98440.97;;;0.85;89.19
22241;BME280;11289;52.524;13.694;2024-01-15T07:07:34;98442.75;;;0.81;89.50
22241;BME280;11289;52.524;13.694;2024-01-15T07:10:00;98446.28;;;0.82;89.16
22241;BME280;11289;52.524;13.694;2024-01-15T07:12:25;98436.78;;;0.79;89.56
22241;BME280;11289;52.524;13.694;2024-01-15T07:14:51;98444.66;;;0.81;89.52
22241;BME280;11289;52.524;13.694;2024-01-15T07:17:17;98438.22;;;0.77;89.84
22241;BME280;11289;52.524;13.694;2024-01-15T07:19:43;98462.03;;;0.76;89.88
22241;BME280;11289;52.524;13.694;2024-01-15T07:22:09;98471.00;;;0.77;90.46
22241;BME280;11289;52.524;13.694;2024-01-15T07:24:35;98484.66;;;0.77;89.92
22241;BME280;11289;52.524;13.694;2024-01-15T07:27:01;98484.84;;;0.72;90.63
22241;BME280;11289;52.524;13.694;2024-01-15T07:29:27;98488.19;;;0.68;91.01
22241;BME280;11289;52.524;13.694;2024-01-15T07:31:54;98496.06;;;0.70;91.38
22241;BME280;11289;52.524;13.694;2024-01-15T07:34:20;98493.66;;;0.68;91.57
22241;BME280;11289;52.524;13.694;2024-01-15T07:36:46;98493.97;;;0.67;91.70
22241;BME280;11289;52.524;13.694;2024-01-15T07:39:12;98500.56;;;0.66;92.07
22241;BME280;11289;52.524;13.694;2024-01-15T07:41:39;98498.94;;;0.65;92.21
22241;BME280;11289;52.524;13.694;2024-01-15T07:44:05;98514.84;;;0.63;92.49
22241;BME280;11289;52.524;13.694;2024-01-15T07:46:31;98518.38;;;0.63;92.76
22241;BME280;11289;52.524;13.694;2024-01-15T07:48:57;98506.66;;;0.63;93.05
22241;BME280;11289;52.524;13.694;2024-01-15T07:51:24;98504.56;;;0.60;93.16
22241;BME280;11289;52.524;13.694;2024-01-15T07:53:51;98513.69;;;0.64;93.37
22241;BME280;11289;52.524;13.694;2024-01-15T07:56:17;98507.75;;;0.62;93.01
22241;BME280;11289;52.524;13.694;2024-01-15T07:58:43;98515.47;;;0.60;93.31
22241;BME280;11289;52.524;13.694;2024-01-15T08:01:09;98512.13;;;0.63;92.77
22241;BME280;11289;52.524;13.694;2024-01-15T08:03:35;98496.97;;;0.57;92.56
22241;BME280;11289;52.524;13.694;2024-01-15T08:06:01;98504.91;;;0.67;92.02
22241;BME280;11289;52.524;13.694;2024-01-15T08:08:27;98505.38;;;0.69;91.39
22241;BME280;11289;52.524;13.694;2024-01-15T08:10:53;98504.09;;;0.66;90.97
22241;BME280;11289;52.524;13.694;2024-01-15T08:13:19;98509.09;;;0.73;90.67
22241;BME280;11289;52.524;13.694;2024-01-15T08:15:46;98510.72;;;0.74;90.59
22241;BME280;11289;52.524;13.694;2024-01-15T08:18:12;98508.63;;;0.80;91.01
22241;BME280;11289;52.524;13.694;2024-01-15T08:20:38;98508.00;;;0.83;91.02
22241;BME280;11289;52.524;13.694;2024-01-15T08:23:04;98497.22;;;0.78;91.14
22241;BME280;11289;52.524;13.694;2024-01-15T08:25:30;98497.41;;;0.81;90.84
22241;BME280;11289;52.524;13.694;2024-01-15T08:27:56;98494.03;;;0.84;90.16
22241;BME280;11289;52.524;13.694;2024-01-15T08:30:23;98500.59;;;0.83;89.94
22241;BME280;11289;52.524;13.694;2024-01-15T08:32:53;98501.72;;;0.82;89.39
22241;BME280;11289;52.524;13.694;2024-01-15T08:35:19;98509.78;;;0.88;88.99
22241;BME280;11289;52.524;13.694;2024-01-15T08:37:49;98502.22;;;0.84;89.49
22241;BME280;11289;52.524;13.694;2024-01-15T08:40:16;98516.84;;;0.89;89.34
22241;BME280;11289;52.524;13.694;2024-01-15T08:42:42;98511.38;;;0.89;88.85
22241;BME280;11289;52.524;13.694;2024-01-15T08:45:09;98527.31;;;0.95;88.63
22241;BME280;11289;52.524;13.694;2024-01-15T08:47:35;98530.53;;;0.97;88.33
22241;BME280;11289;52.524;13.694;2024-01-15T08:50:02;98507.38;;;0.95;88.50
22241;BME280;11289;52.524;13.694;2024-01-15T08:52:29;98524.75;;;0.99;88.00
22241;BME280;11289;52.524;13.694;2024-01-15T08:54:56;98521.72;;;1.00;87.66
22241;BME280;11289;52.524;13.694;2024-01-15T08:57:23;98519.59;;;0.97;87.47
22241;BME280;11289;52.524;13.694;2024-01-15T08:59:49;98523.63;;;1.00;88.20
22241;BME280;11289;52.524;13.694;2024-01-15T09:02:15;98517.34;;;0.99;87.80
22241;BME280;11289;52.524;13.694;2024-01-15T09:04:41;98525.88;;;0.98;87.86
22241;BME280;11289;52.524;13.694;2024-01-15T09:07:07;98518.00;;;0.96;87.51
22241;BME280;11289;52.524;13.694;2024-01-15T09:09:33;98524.91;;;1.02;87.87
22241;BME280;11289;52.524;13.694;2024-01-15T09:11:59;98532.97;;;0.99;87.48
22241;BME280;11289;52.524;13.694;2024-01-15T09:14:25;98540.53;;;1.02;87.92
22241;BME280;11289;52.524;13.694;2024-01-15T09:16:53;98548.22;;;1.00;87.73
22241;BME280;11289;52.524;13.694;2024-01-15T09:19:19;98539.38;;;1.03;87.61
22241;BME280;11289;52.524;13.694;2024-01-15T09:21:45;98540.34;;;1.07;87.60
22241;BME280;11289;52.524;13.694;2024-01-15T09:24:11;98547.25;;;1.04;87.51
22241;BME280;11289;52.524;13.694;2024-01-15T09:26:37;98548.09;;;1.05;87.64
22241;BME280;11289;52.524;13.694;2024-01-15T09:29:03;98546.47;;;1.04;87.78
22241;BME280;11289;52.524;13.694;2024-01-15T09:31:29;98541.78;;;1.04;87.37
22241;BME280;11289;52.524;13.694;2024-01-15T09:33:55;98537.78;;;1.02;87.19
22241;BME280;11289;52.524;13.694;2024-01-15T09:36:22;98557.91;;;1.06;87.30
22241;BME280;11289;52.524;13.694;2024-01-15T09:38:48;98552.13;;;1.08;87.84
22241;BME280;11289;52.524;13.694;2024-01-15T09:41:15;98559.16;;;1.09;87.79
22241;BME280;11289;52.524;13.694;2024-01-15T09:43:41;98555.47;;;1.13;87.60
22241;BME280;11289;52.524;13.694;2024-01-15T09:46:07;98562.56;;;1.14;86.95
22241;BME280;11289;52.524;13.694;2024-01-15T09:48:34;98558.72;;;1.15;86.78
22241;BME280;11289;52.524;13.694;2024-01-15T09:51:03;98551.00;;;1.17;87.07
22241;BME280;11289;52.524;13.694;2024-01-15T09:53:32;98547.94;;;1.28;87.10
22241;BME280;11289;52.524;13.694;2024-01-15T09:55:58;98547.81;;;1.33;87.09
22241;BME280;11289;52.524;13.694;2024-01-15T09:58:25;98558.44;;;1.43;86.56
22241;BME280;11289;52.524;13.694;2024-01-15T10:00:51;98548.81;;;1.54;86.81
22241;BME280;11289;52.524;13.694;2024-01-15T10:03:17;98539.47;;;1.55;85.48
22241;BME280;11289;52.524;13.694;2024-01-15T10:05:43;98541.72;;;1.62;84.80
22241;BME280;11289;52.524;13.694;2024-01-15T10:08:09;98529.34;;;1.65;84.88
22241;BME280;11289;52.524;13.694;2024-01-15T10:10:37;98543.00;;;1.65;84.58
22241;BME280;11289;52.524;13.694;2024-01-15T10:13:03;98532.53;;;1.67;84.03
22241;BME280;11289;52.524;13.694;2024-01-15T10:15:34;98540.09;;;1.70;84.08
22241;BME280;11289;52.524;13.694;2024-01-15T10:18:00;98531.75;;;1.66;84.05
22241;BME280;11289;52.524;13.694;2024-01-15T10:20:26;98528.22;;;1.66;84.35
22241;BME280;11289;52.524;13.694;2024-01-15T10:22:52;98527.72;;;1.72;84.50
22241;BME280;11289;52.524;13.694;2024-01-15T10:25:18;98522.25;;;1.72;84.02
22241;BME280;11289;52.524;13.694;2024-01-15T10:28:02;98516.28;;;1.79;84.49
22241;BME280;11289;52.524;13.694;2024-01-15T10:30:29;98535.13;;;1.81;84.91
22241;BME280;11289;52.524;13.694;2024-01-15T10:33:03;98535.91;;;1.81;84.49
22241;BME280;11289;52.524;13.694;2024-01-15T10:35:32;98532.38;;;1.81;84.18
22241;BME280;11289;52.524;13.694;2024-01-15T10:38:02;98524.97;;;1.81;84.09
22241;BME280;11289;52.524;13.694;2024-01-15T10:40:29;98517.41;;;1.78;84.38
22241;BME280;11289;52.524;13.694;2024-01-15T10:42:55;98516.94;;;1.76;83.96
22241;BME280;11289;52.524;13.694;2024-01-15T10:45:22;98523.38;;;1.71;83.64
22241;BME280;11289;52.524;13.694;2024-01-15T10:47:48;98523.69;;;1.70;83.30
22241;BME280;11289;52.524;13.694;2024-01-15T10:50:15;98518.06;;;1.66;83.19
22241;BME280;11289;52.524;13.694;2024-01-15T10:52:42;98529.97;;;1.70;83.53
22241;BME280;11289;52.524;13.694;2024-01-15T10:55:11;98523.69;;;1.70;83.63
22241;BME280;11289;52.524;13.694;2024-01-15T10:57:39;98515.97;;;1.72;83.74
22241;BME280;11289;52.524;13.694;2024-01-15T11:00:05;98524.50;;;1.70;83.33
22241;BME280;11289;52.524;13.694;2024-01-15T11:02:35;98540.09;;;1.70;83.97
22241;BME280;11289;52.524;13.694;2024-01-15T11:05:01;98535.44;;;1.70;83.40
22241;BME280;11289;52.524;13.694;2024-01-15T11:07:29;98530.94;;;1.74;83.43
22241;BME280;11289;52.524;13.694;2024-01-15T11:09:56;98524.84;;;1.69;83.16
22241;BME280;11289;52.524;13.694;2024-01-15T11:12:24;98531.59;;;1.71;82.97
22241;BME280;11289;52.524;13.694;2024-01-15T11:14:50;98525.63;;;1.69;82.72
22241;BME280;11289;52.524;13.694;2024-01-15T11:17:17;98531.75;;;1.75;82.50
22241;BME280;11289;52.524;13.694;2024-01-15T11:19:45;98538.84;;;1.76;83.27
22241;BME280;11289;52.524;13.694;2024-01-15T11:24:56;98537.41;;;1.79;83.16
22241;BME280;11289;52.524;13.694;2024-01-15T11:27:42;98528.53;;;1.82;83.24
22241;BME280;11289;52.524;13.694;2024-01-15T11:30:09;98536.75;;;1.82;82.52
22241;BME280;11289;52.524;13.694;2024-01-15T11:32:36;98528.84;;;1.80;82.53
22241;BME280;11289;52.524;13.694;2024-01-15T11:35:03;98530.63;;;1.85;82.84
22241;BME280;11289;52.524;13.694;2024-01-15T11:40:22;98536.41;;;1.92;81.66
22241;BME280;11289;52.524;13.694;2024-01-15T11:42:49;98533.81;;;1.96;81.80
22241;BME280;11289;52.524;13.694;2024-01-15T11:45:18;98556.69;;;2.00;81.67
22241;BME280;11289;52.524;13.694;2024-01-15T11:50:21;98533.81;;;2.04;81.38
22241;BME280;11289;52.524;13.694;2024-01-15T11:52:57;98552.63;;;2.06;81.13
22241;BME280;11289;52.524;13.694;2024-01-15T11:57:57;98541.03;;;2.09;81.69
22241;BME280;11289;52.524;13.694;2024-01-15T12:00:26;98547.16;;;2.06;81.70
22241;BME280;11289;52.524;13.694;2024-01-15T12:02:52;98537.84;;;2.07;81.37
22241;BME280;11289;52.524;13.694;2024-01-15T12:05:19;98544.94;;;2.08;81.66
22241;BME280;11289;52.524;13.694;2024-01-15T12:07:46;98559.59;;;2.03;81.96
22241;BME280;11289;52.524;13.694;2024-01-15T12:10:19;98551.69;;;1.93;83.10
22241;BME280;11289;52.524;13.694;2024-01-15T12:15:21;98585.81;;;1.78;86.16
22241;BME280;11289;52.524;13.694;2024-01-15T12:17:47;98586.78;;;1.73;86.60
22241;BME280;11289;52.524;13.694;2024-01-15T12:20:13;98574.88;;;1.69;87.65
22241;BME280;11289;52.524;13.694;2024-01-15T12:22:41;98584.53;;;1.67;88.19
22241;BME280;11289;52.524;13.694;2024-01-15T12:25:07;98580.53;;;1.64;88.35
22241;BME280;11289;52.524;13.694;2024-01-15T12:27:33;98586.78;;;1.65;88.54
22241;BME280;11289;52.524;13.694;2024-01-15T12:29:59;98572.44;;;1.59;88.43
22241;BME280;11289;52.524;13.694;2024-01-15T12:32:25;98568.75;;;1.55;88.25
22241;BME280;11289;52.524;13.694;2024-01-15T12:34:51;98575.19;;;1.50;88.49
22241;BME280;11289;52.524;13.694;2024-01-15T12:37:20;98572.91;;;1.52;88.14
22241;BME280;11289;52.524;13.694;2024-01-15T12:39:47;98581.63;;;1.54;88.49
22241;BME280;11289;52.524;13.694;2024-01-15T12:42:14;98580.81;;;1.54;88.65
22241;BME280;11289;52.524;13.694;2024-01-15T12:44:40;98584.34;;;1.54;88.54
22241;BME280;11289;52.524;13.694;2024-01-15T12:47:06;98568.09;;;1.49;88.22
22241;BME280;11289;52.524;13.694;2024-01-15T12:49:32;98569.69;;;1.42;88.06
22241;BME280;11289;52.524;13.694;2024-01-15T12:51:59;98578.88;;;1.37;88.65
22241;BME280;11289;52.524;13.694;2024-01-15T12:54:25;98572.91;;;1.35;88.97
22241;BME280;11289;52.524;13.694;2024-01-15T12:56:52;98579.66;;;1.29;89.72
22241;BME280;11289;52.524;13.694;2024-01-15T12:59:18;98590.44;;;1.25;90.00
22241;BME280;11289;52.524;13.694;2024-01-15T13:01:45;98598.94;;;1.24;90.36
22241;BME280;11289;52.524;13.694;2024-01-15T13:04:21;98601.69;;;1.24;90.58
22241;BME280;11289;52.524;13.694;2024-01-15T13:06:47;98575.13;;;1.15;90.84
22241;BME280;11289;52.524;13.694;2024-01-15T13:09:13;98595.56;;;1.18;90.77